sensor_id;sensor_type;location;lat;lon;timestamp;P1;durP1;ratioP1;P2;durP2;ratioP2
77888;SDS011;67082;41.704;44.768;2023-04-03T00:00:04;18.50;;;11.25;;
77888;SDS011;67082;41.704;44.768;2023-04-03T00:02:52;21.10;;;11.75;;
77888;SDS011;67082;41.704;44.768;2023-04-03T00:05:20;21.17;;;12.02;;
77888;SDS011;67082;41.704;44.768;2023-04-03T00:07:48;22.60;;;11.80;;
77888;SDS011;67082;41.704;44.768;2023-04-03T00:10:17;21.42;;;12.18;;
77888;SDS011;67082;41.704;44.768;2023-04-03T00:12:45;21.23;;;11.63;;
77888;SDS011;67082;41.704;44.768;2023-04-03T00:15:14;23.20;;;11.43;;
77888;SDS011;67082;41.704;44.768;2023-04-03T00:17:42;22.88;;;11.95;;
77888;SDS011;67082;41.704;44.768;2023-04-03T00:20:10;21.60;;;11.48;;
77888;SDS011;67082;41.704;44.768;2023-04-03T00:22:38;24.95;;;12.10;;
77888;SDS011;67082;41.704;44.768;2023-04-03T00:25:07;20.45;;;12.23;;
77888;SDS011;67082;41.704;44.768;2023-04-03T00:27:36;19.83;;;10.82;;
77888;SDS011;67082;41.704;44.768;2023-04-03T00:30:06;25.52;;;12.20;;
77888;SDS011;67082;41.704;44.768;2023-04-03T00:32:37;21.20;;;12.10;;
77888;SDS011;67082;41.704;44.768;2023-04-03T00:35:06;21.60;;;11.60;;
77888;SDS011;67082;41.704;44.768;2023-04-03T00:37:34;24.83;;;12.20;;
77888;SDS011;67082;41.704;44.768;2023-04-03T00:40:03;23.15;;;11.88;;
77888;SDS011;67082;41.704;44.768;2023-04-03T00:42:31;19.88;;;11.65;;
77888;SDS011;67082;41.704;44.768;2023-04-03T00:47:29;20.25;;;12.00;;
77888;SDS011;67082;41.704;44.768;2023-04-03T00:49:58;19.33;;;11.82;;
77888;SDS011;67082;41.704;44.768;2023-04-03T00:52:28;19.23;;;11.50;;
77888;SDS011;67082;41.704;44.768;2023-04-03T00:54:59;20.48;;;12.02;;
77888;SDS011;67082;41.704;44.768;2023-04-03T00:57:29;20.83;;;12.10;;
77888;SDS011;67082;41.704;44.768;2023-04-03T01:00:03;23.00;;;11.63;;
77888;SDS011;67082;41.704;44.768;2023-04-03T01:02:36;22.63;;;11.82;;
77888;SDS011;67082;41.704;44.768;2023-04-03T01:05:05;20.40;;;11.15;;
77888;SDS011;67082;41.704;44.768;2023-04-03T01:07:33;20.65;;;11.82;;
77888;SDS011;67082;41.704;44.768;2023-04-03T01:10:06;22.42;;;11.75;;
77888;SDS011;67082;41.704;44.768;2023-04-03T01:12:38;14.40;;;7.60;;
77888;SDS011;67082;41.704;44.768;2023-04-03T01:15:16;20.48;;;12.13;;
77888;SDS011;67082;41.704;44.768;2023-04-03T01:17:48;23.52;;;12.05;;
77888;SDS011;67082;41.704;44.768;2023-04-03T01:25:38;24.42;;;11.98;;
77888;SDS011;67082;41.704;44.768;2023-04-03T01:28:13;21.73;;;12.07;;
77888;SDS011;67082;41.704;44.768;2023-04-03T01:33:21;21.52;;;12.02;;
77888;SDS011;67082;41.704;44.768;2023-04-03T01:35:49;23.70;;;12.38;;
77888;SDS011;67082;41.704;44.768;2023-04-03T01:38:18;22.02;;;11.98;;
77888;SDS011;67082;41.704;44.768;2023-04-03T01:40:46;23.58;;;11.57;;
77888;SDS011;67082;41.704;44.768;2023-04-03T01:43:15;18.58;;;10.80;;
77888;SDS011;67082;41.704;44.768;2023-04-03T01:45:43;20.92;;;12.00;;
77888;SDS011;67082;41.704;44.768;2023-04-03T01:48:11;24.38;;;11.63;;
77888;SDS011;67082;41.704;44.768;2023-04-03T01:50:40;18.25;;;10.15;;
77888;SDS011;67082;41.704;44.768;2023-04-03T01:53:08;20.17;;;11.48;;
77888;SDS011;67082;41.704;44.768;2023-04-03T01:55:37;21.05;;;12.05;;
77888;SDS011;67082;41.704;44.768;2023-04-03T01:58:05;23.77;;;11.73;;
77888;SDS011;67082;41.704;44.768;2023-04-03T02:00:33;19.02;;;10.63;;
77888;SDS011;67082;41.704;44.768;2023-04-03T02:03:01;22.77;;;11.00;;
77888;SDS011;67082;41.704;44.768;2023-04-03T02:05:30;21.30;;;11.85;;
77888;SDS011;67082;41.704;44.768;2023-04-03T02:07:58;18.33;;;11.38;;
77888;SDS011;67082;41.704;44.768;2023-04-03T02:10:28;22.60;;;12.07;;
77888;SDS011;67082;41.704;44.768;2023-04-03T02:12:56;20.15;;;11.73;;
77888;SDS011;67082;41.704;44.768;2023-04-03T02:15:25;21.23;;;11.43;;
77888;SDS011;67082;41.704;44.768;2023-04-03T02:17:53;21.05;;;12.10;;
77888;SDS011;67082;41.704;44.768;2023-04-03T02:20:22;28.38;;;11.73;;
77888;SDS011;67082;41.704;44.768;2023-04-03T02:22:50;17.60;;;10.77;;
77888;SDS011;67082;41.704;44.768;2023-04-03T02:25:18;17.00;;;10.70;;
77888;SDS011;67082;41.704;44.768;2023-04-03T02:27:46;22.00;;;11.10;;
77888;SDS011;67082;41.704;44.768;2023-04-03T02:30:15;20.95;;;11.02;;
77888;SDS011;67082;41.704;44.768;2023-04-03T02:32:43;20.40;;;11.30;;
77888;SDS011;67082;41.704;44.768;2023-04-03T02:35:12;20.60;;;10.13;;
77888;SDS011;67082;41.704;44.768;2023-04-03T02:37:40;20.30;;;11.10;;
77888;SDS011;67082;41.704;44.768;2023-04-03T02:40:08;22.65;;;10.60;;
77888;SDS011;67082;41.704;44.768;2023-04-03T02:42:39;22.65;;;11.23;;
77888;SDS011;67082;41.704;44.768;2023-04-03T02:45:07;19.42;;;10.35;;
77888;SDS011;67082;41.704;44.768;2023-04-03T02:47:35;16.30;;;9.63;;
77888;SDS011;67082;41.704;44.768;2023-04-03T02:50:04;17.92;;;9.98;;
77888;SDS011;67082;41.704;44.768;2023-04-03T02:52:32;15.93;;;8.70;;
77888;SDS011;67082;41.704;44.768;2023-04-03T02:55:01;15.88;;;9.30;;
77888;SDS011;67082;41.704;44.768;2023-04-03T02:57:29;15.35;;;8.73;;
77888;SDS011;67082;41.704;44.768;2023-04-03T02:59:58;18.52;;;8.50;;
77888;SDS011;67082;41.704;44.768;2023-04-03T03:02:26;12.93;;;8.15;;
77888;SDS011;67082;41.704;44.768;2023-04-03T03:04:54;13.93;;;8.30;;
77888;SDS011;67082;41.704;44.768;2023-04-03T03:07:23;15.18;;;8.13;;
77888;SDS011;67082;41.704;44.768;2023-04-03T03:09:52;13.82;;;7.65;;
77888;SDS011;67082;41.704;44.768;2023-04-03T03:12:20;13.40;;;6.85;;
77888;SDS011;67082;41.704;44.768;2023-04-03T03:14:50;12.80;;;7.22;;
77888;SDS011;67082;41.704;44.768;2023-04-03T03:17:17;11.52;;;6.93;;
77888;SDS011;67082;41.704;44.768;2023-04-03T03:19:46;14.80;;;7.25;;
77888;SDS011;67082;41.704;44.768;2023-04-03T03:22:14;13.85;;;7.38;;
77888;SDS011;67082;41.704;44.768;2023-04-03T03:24:44;14.13;;;6.95;;
77888;SDS011;67082;41.704;44.768;2023-04-03T03:27:12;12.30;;;7.13;;
77888;SDS011;67082;41.704;44.768;2023-04-03T03:29:40;16.65;;;7.20;;
77888;SDS011;67082;41.704;44.768;2023-04-03T03:32:09;13.75;;;6.65;;
77888;SDS011;67082;41.704;44.768;2023-04-03T03:34:37;10.63;;;6.95;;
77888;SDS011;67082;41.704;44.768;2023-04-03T03:37:05;14.57;;;6.75;;
77888;SDS011;67082;41.704;44.768;2023-04-03T03:39:34;11.90;;;6.38;;
77888;SDS011;67082;41.704;44.768;2023-04-03T03:42:02;14.50;;;6.35;;
77888;SDS011;67082;41.704;44.768;2023-04-03T03:44:31;12.25;;;6.50;;
77888;SDS011;67082;41.704;44.768;2023-04-03T03:46:59;10.88;;;5.80;;
77888;SDS011;67082;41.704;44.768;2023-04-03T03:49:29;11.77;;;5.75;;
77888;SDS011;67082;41.704;44.768;2023-04-03T03:51:57;10.13;;;5.57;;
77888;SDS011;67082;41.704;44.768;2023-04-03T03:54:25;12.43;;;5.93;;
77888;SDS011;67082;41.704;44.768;2023-04-03T03:56:53;14.88;;;5.75;;
77888;SDS011;67082;41.704;44.768;2023-04-03T03:59:24;15.07;;;6.20;;
77888;SDS011;67082;41.704;44.768;2023-04-03T04:01:52;10.57;;;5.35;;
77888;SDS011;67082;41.704;44.768;2023-04-03T04:04:20;11.43;;;5.50;;
77888;SDS011;67082;41.704;44.768;2023-04-03T04:06:49;13.23;;;5.75;;
77888;SDS011;67082;41.704;44.768;2023-04-03T04:09:18;12.10;;;6.00;;
77888;SDS011;67082;41.704;44.768;2023-04-03T04:11:49;10.25;;;5.45;;
77888;SDS011;67082;41.704;44.768;2023-04-03T04:14:18;15.00;;;5.63;;
77888;SDS011;67082;41.704;44.768;2023-04-03T04:16:48;13.75;;;5.90;;
77888;SDS011;67082;41.704;44.768;2023-04-03T04:19:22;11.18;;;5.93;;
77888;SDS011;67082;41.704;44.768;2023-04-03T04:21:50;10.40;;;5.60;;
77888;SDS011;67082;41.704;44.768;2023-04-03T04:24:19;10.07;;;5.53;;
77888;SDS011;67082;41.704;44.768;2023-04-03T04:26:52;9.07;;;5.20;;
77888;SDS011;67082;41.704;44.768;2023-04-03T04:32:21;9.23;;;4.90;;
77888;SDS011;67082;41.704;44.768;2023-04-03T04:34:51;10.52;;;5.30;;
77888;SDS011;67082;41.704;44.768;2023-04-03T04:37:22;9.52;;;4.97;;
77888;SDS011;67082;41.704;44.768;2023-04-03T04:39:51;12.07;;;5.65;;
77888;SDS011;67082;41.704;44.768;2023-04-03T04:42:18;13.25;;;6.07;;
77888;SDS011;67082;41.704;44.768;2023-04-03T04:44:49;18.30;;;6.15;;
77888;SDS011;67082;41.704;44.768;2023-04-03T04:47:18;10.02;;;5.97;;
77888;SDS011;67082;41.704;44.768;2023-04-03T04:49:47;10.55;;;5.03;;
77888;SDS011;67082;41.704;44.768;2023-04-03T04:52:15;14.40;;;5.65;;
77888;SDS011;67082;41.704;44.768;2023-04-03T04:54:45;12.98;;;5.80;;
77888;SDS011;67082;41.704;44.768;2023-04-03T04:57:13;10.30;;;5.45;;
77888;SDS011;67082;41.704;44.768;2023-04-03T04:59:47;12.70;;;5.50;;
77888;SDS011;67082;41.704;44.768;2023-04-03T05:02:15;11.55;;;6.18;;
77888;SDS011;67082;41.704;44.768;2023-04-03T05:04:50;19.27;;;6.50;;
77888;SDS011;67082;41.704;44.768;2023-04-03T05:07:25;11.73;;;5.30;;
77888;SDS011;67082;41.704;44.768;2023-04-03T05:09:56;11.70;;;6.20;;
77888;SDS011;67082;41.704;44.768;2023-04-03T05:12:29;12.00;;;6.15;;
77888;SDS011;67082;41.704;44.768;2023-04-03T05:15:04;13.57;;;5.90;;
77888;SDS011;67082;41.704;44.768;2023-04-03T05:17:34;13.57;;;5.40;;
77888;SDS011;67082;41.704;44.768;2023-04-03T05:20:08;11.20;;;5.75;;
77888;SDS011;67082;41.704;44.768;2023-04-03T05:22:37;15.40;;;5.28;;
77888;SDS011;67082;41.704;44.768;2023-04-03T05:25:09;10.45;;;5.25;;
77888;SDS011;67082;41.704;44.768;2023-04-03T05:27:39;11.48;;;5.85;;
77888;SDS011;67082;41.704;44.768;2023-04-03T05:30:09;10.98;;;5.70;;
77888;SDS011;67082;41.704;44.768;2023-04-03T05:32:40;15.57;;;5.47;;
77888;SDS011;67082;41.704;44.768;2023-04-03T05:35:17;11.45;;;5.97;;
77888;SDS011;67082;41.704;44.768;2023-04-03T05:37:52;15.18;;;7.38;;
77888;SDS011;67082;41.704;44.768;2023-04-03T05:40:23;18.70;;;9.18;;
77888;SDS011;67082;41.704;44.768;2023-04-03T05:42:54;15.32;;;7.43;;
77888;SDS011;67082;41.704;44.768;2023-04-03T05:45:25;11.60;;;5.93;;
77888;SDS011;67082;41.704;44.768;2023-04-03T05:47:58;13.93;;;6.20;;
77888;SDS011;67082;41.704;44.768;2023-04-03T05:50:27;10.40;;;5.03;;
77888;SDS011;67082;41.704;44.768;2023-04-03T05:58:50;15.98;;;5.18;;
77888;SDS011;67082;41.704;44.768;2023-04-03T06:01:18;10.32;;;5.35;;
77888;SDS011;67082;41.704;44.768;2023-04-03T06:03:47;12.50;;;5.00;;
77888;SDS011;67082;41.704;44.768;2023-04-03T06:10:48;12.32;;;5.80;;
77888;SDS011;67082;41.704;44.768;2023-04-03T06:13:48;11.93;;;5.00;;
77888;SDS011;67082;41.704;44.768;2023-04-03T06:16:20;10.20;;;4.22;;
77888;SDS011;67082;41.704;44.768;2023-04-03T06:18:56;7.47;;;4.10;;
77888;SDS011;67082;41.704;44.768;2023-04-03T06:21:51;11.18;;;4.30;;
77888;SDS011;67082;41.704;44.768;2023-04-03T06:24:21;12.32;;;4.65;;
77888;SDS011;67082;41.704;44.768;2023-04-03T06:27:16;10.40;;;4.03;;
77888;SDS011;67082;41.704;44.768;2023-04-03T06:29:45;15.38;;;5.05;;
77888;SDS011;67082;41.704;44.768;2023-04-03T06:32:13;12.40;;;4.15;;
77888;SDS011;67082;41.704;44.768;2023-04-03T06:34:41;9.73;;;4.10;;
77888;SDS011;67082;41.704;44.768;2023-04-03T06:37:14;8.90;;;3.92;;
77888;SDS011;67082;41.704;44.768;2023-04-03T06:39:49;13.23;;;4.05;;
77888;SDS011;67082;41.704;44.768;2023-04-03T06:42:17;11.50;;;3.45;;
77888;SDS011;67082;41.704;44.768;2023-04-03T06:44:53;9.05;;;4.18;;
77888;SDS011;67082;41.704;44.768;2023-04-03T06:47:21;11.40;;;3.95;;
77888;SDS011;67082;41.704;44.768;2023-04-03T06:49:50;11.50;;;3.40;;
77888;SDS011;67082;41.704;44.768;2023-04-03T06:52:21;8.50;;;3.70;;
77888;SDS011;67082;41.704;44.768;2023-04-03T06:54:49;11.00;;;3.97;;
77888;SDS011;67082;41.704;44.768;2023-04-03T06:57:20;11.45;;;3.50;;
77888;SDS011;67082;41.704;44.768;2023-04-03T06:59:49;7.93;;;3.28;;
77888;SDS011;67082;41.704;44.768;2023-04-03T07:02:17;6.43;;;3.33;;
77888;SDS011;67082;41.704;44.768;2023-04-03T07:04:46;7.78;;;3.40;;
77888;SDS011;67082;41.704;44.768;2023-04-03T07:07:22;11.15;;;3.92;;
77888;SDS011;67082;41.704;44.768;2023-04-03T07:09:50;7.72;;;3.42;;
77888;SDS011;67082;41.704;44.768;2023-04-03T07:12:18;8.70;;;3.20;;
77888;SDS011;67082;41.704;44.768;2023-04-03T07:18:41;14.88;;;3.72;;
77888;SDS011;67082;41.704;44.768;2023-04-03T07:21:16;11.65;;;3.58;;
77888;SDS011;67082;41.704;44.768;2023-04-03T07:23:44;8.25;;;3.42;;
77888;SDS011;67082;41.704;44.768;2023-04-03T07:26:12;10.82;;;3.80;;
77888;SDS011;67082;41.704;44.768;2023-04-03T07:28:41;13.27;;;3.92;;
77888;SDS011;67082;41.704;44.768;2023-04-03T07:31:12;10.88;;;3.70;;
77888;SDS011;67082;41.704;44.768;2023-04-03T07:33:44;10.55;;;3.90;;
77888;SDS011;67082;41.704;44.768;2023-04-03T07:36:17;8.55;;;3.58;;
77888;SDS011;67082;41.704;44.768;2023-04-03T07:38:47;11.95;;;4.05;;
77888;SDS011;67082;41.704;44.768;2023-04-03T07:41:16;10.18;;;3.75;;
77888;SDS011;67082;41.704;44.768;2023-04-03T07:43:45;10.88;;;4.60;;
77888;SDS011;67082;41.704;44.768;2023-04-03T07:46:14;12.45;;;3.83;;
77888;SDS011;67082;41.704;44.768;2023-04-03T07:48:43;13.48;;;3.67;;
77888;SDS011;67082;41.704;44.768;2023-04-03T07:51:12;11.65;;;4.20;;
77888;SDS011;67082;41.704;44.768;2023-04-03T07:53:41;12.82;;;4.13;;
77888;SDS011;67082;41.704;44.768;2023-04-03T07:56:09;8.82;;;3.80;;
77888;SDS011;67082;41.704;44.768;2023-04-03T07:58:37;22.08;;;3.63;;
77888;SDS011;67082;41.704;44.768;2023-04-03T08:01:06;11.57;;;3.38;;
77888;SDS011;67082;41.704;44.768;2023-04-03T08:03:34;10.88;;;3.28;;
77888;SDS011;67082;41.704;44.768;2023-04-03T08:06:06;10.82;;;3.45;;
77888;SDS011;67082;41.704;44.768;2023-04-03T08:08:42;12.48;;;3.50;;
77888;SDS011;67082;41.704;44.768;2023-04-03T08:11:11;23.77;;;3.50;;
77888;SDS011;67082;41.704;44.768;2023-04-03T08:13:39;11.27;;;3.45;;
77888;SDS011;67082;41.704;44.768;2023-04-03T08:16:13;7.80;;;3.00;;
77888;SDS011;67082;41.704;44.768;2023-04-03T08:18:45;13.25;;;3.03;;
77888;SDS011;67082;41.704;44.768;2023-04-03T08:21:13;5.90;;;2.97;;
77888;SDS011;67082;41.704;44.768;2023-04-03T08:23:42;8.18;;;2.78;;
77888;SDS011;67082;41.704;44.768;2023-04-03T08:26:12;7.78;;;2.95;;
77888;SDS011;67082;41.704;44.768;2023-04-03T08:28:44;9.48;;;2.95;;
77888;SDS011;67082;41.704;44.768;2023-04-03T08:31:15;8.93;;;2.83;;
77888;SDS011;67082;41.704;44.768;2023-04-03T08:33:46;6.53;;;2.45;;
77888;SDS011;67082;41.704;44.768;2023-04-03T08:36:33;6.82;;;2.80;;
77888;SDS011;67082;41.704;44.768;2023-04-03T08:39:01;5.82;;;2.40;;
77888;SDS011;67082;41.704;44.768;2023-04-03T08:44:23;11.68;;;2.60;;
77888;SDS011;67082;41.704;44.768;2023-04-03T08:47:25;12.80;;;2.88;;
77888;SDS011;67082;41.704;44.768;2023-04-03T08:50:25;7.53;;;2.67;;
77888;SDS011;67082;41.704;44.768;2023-04-03T08:52:58;13.55;;;3.03;;
77888;SDS011;67082;41.704;44.768;2023-04-03T08:55:40;11.77;;;2.80;;
77888;SDS011;67082;41.704;44.768;2023-04-03T08:58:12;8.07;;;2.67;;
77888;SDS011;67082;41.704;44.768;2023-04-03T09:00:48;9.20;;;2.75;;
77888;SDS011;67082;41.704;44.768;2023-04-03T09:03:19;8.80;;;2.58;;
77888;SDS011;67082;41.704;44.768;2023-04-03T09:11:57;9.73;;;3.13;;
77888;SDS011;67082;41.704;44.768;2023-04-03T09:15:02;13.32;;;2.92;;
77888;SDS011;67082;41.704;44.768;2023-04-03T09:23:21;6.30;;;2.70;;
77888;SDS011;67082;41.704;44.768;2023-04-03T09:26:09;7.88;;;2.63;;
77888;SDS011;67082;41.704;44.768;2023-04-03T09:28:44;9.27;;;2.92;;
77888;SDS011;67082;41.704;44.768;2023-04-03T09:31:19;9.13;;;3.03;;
77888;SDS011;67082;41.704;44.768;2023-04-03T09:33:50;7.95;;;3.05;;
77888;SDS011;67082;41.704;44.768;2023-04-03T09:36:37;9.27;;;2.90;;
77888;SDS011;67082;41.704;44.768;2023-04-03T09:39:20;11.73;;;2.78;;
77888;SDS011;67082;41.704;44.768;2023-04-03T09:42:01;7.32;;;2.70;;
77888;SDS011;67082;41.704;44.768;2023-04-03T09:47:28;9.90;;;3.13;;
77888;SDS011;67082;41.704;44.768;2023-04-03T09:52:42;10.43;;;2.97;;
77888;SDS011;67082;41.704;44.768;2023-04-03T09:55:25;6.43;;;2.58;;
77888;SDS011;67082;41.704;44.768;2023-04-03T09:57:59;7.65;;;2.30;;
77888;SDS011;67082;41.704;44.768;2023-04-03T10:00:39;8.88;;;2.45;;
77888;SDS011;67082;41.704;44.768;2023-04-03T10:03:25;11.73;;;2.90;;
77888;SDS011;67082;41.704;44.768;2023-04-03T10:06:23;11.70;;;3.08;;
77888;SDS011;67082;41.704;44.768;2023-04-03T10:08:58;9.85;;;2.85;;
77888;SDS011;67082;41.704;44.768;2023-04-03T10:11:32;7.60;;;2.50;;
77888;SDS011;67082;41.704;44.768;2023-04-03T10:14:02;8.65;;;3.20;;
77888;SDS011;67082;41.704;44.768;2023-04-03T10:16:47;8.40;;;3.47;;
77888;SDS011;67082;41.704;44.768;2023-04-03T10:19:36;7.05;;;2.67;;
77888;SDS011;67082;41.704;44.768;2023-04-03T10:30:58;7.60;;;2.47;;
77888;SDS011;67082;41.704;44.768;2023-04-03T10:33:33;7.22;;;2.72;;
77888;SDS011;67082;41.704;44.768;2023-04-03T10:39:27;9.93;;;2.45;;
77888;SDS011;67082;41.704;44.768;2023-04-03T10:48:24;14.48;;;2.75;;
77888;SDS011;67082;41.704;44.768;2023-04-03T10:57:01;7.25;;;2.90;;
77888;SDS011;67082;41.704;44.768;2023-04-03T10:59:41;3.57;;;2.30;;
77888;SDS011;67082;41.704;44.768;2023-04-03T11:04:40;6.57;;;2.35;;
77888;SDS011;67082;41.704;44.768;2023-04-03T11:07:26;6.43;;;2.83;;
77888;SDS011;67082;41.704;44.768;2023-04-03T11:10:05;6.28;;;2.70;;
77888;SDS011;67082;41.704;44.768;2023-04-03T11:12:43;7.65;;;2.20;;
77888;SDS011;67082;41.704;44.768;2023-04-03T11:15:16;11.63;;;2.58;;
77888;SDS011;67082;41.704;44.768;2023-04-03T11:18:04;9.20;;;2.40;;
77888;SDS011;67082;41.704;44.768;2023-04-03T11:20:40;8.13;;;2.28;;
77888;SDS011;67082;41.704;44.768;2023-04-03T11:23:19;5.03;;;2.10;;
77888;SDS011;67082;41.704;44.768;2023-04-03T11:26:13;5.88;;;2.30;;
77888;SDS011;67082;41.704;44.768;2023-04-03T11:28:46;7.68;;;2.60;;
77888;SDS011;67082;41.704;44.768;2023-04-03T11:36:53;10.57;;;2.65;;
77888;SDS011;67082;41.704;44.768;2023-04-03T11:39:34;8.30;;;2.42;;
77888;SDS011;67082;41.704;44.768;2023-04-03T11:45:23;4.03;;;2.20;;
77888;SDS011;67082;41.704;44.768;2023-04-03T11:50:46;4.72;;;1.73;;
77888;SDS011;67082;41.704;44.768;2023-04-03T11:53:33;6.00;;;1.80;;
77888;SDS011;67082;41.704;44.768;2023-04-03T11:59:21;6.47;;;2.00;;
77888;SDS011;67082;41.704;44.768;2023-04-03T12:01:56;5.30;;;1.88;;
77888;SDS011;67082;41.704;44.768;2023-04-03T12:04:29;8.35;;;2.20;;
77888;SDS011;67082;41.704;44.768;2023-04-03T12:07:16;6.50;;;1.90;;
77888;SDS011;67082;41.704;44.768;2023-04-03T12:12:40;7.25;;;2.42;;
77888;SDS011;67082;41.704;44.768;2023-04-03T12:15:18;7.30;;;2.38;;
77888;SDS011;67082;41.704;44.768;2023-04-03T12:17:48;6.68;;;2.10;;
77888;SDS011;67082;41.704;44.768;2023-04-03T12:23:32;4.43;;;1.98;;
77888;SDS011;67082;41.704;44.768;2023-04-03T12:26:10;6.45;;;2.20;;
77888;SDS011;67082;41.704;44.768;2023-04-03T12:29:10;4.57;;;2.00;;
77888;SDS011;67082;41.704;44.768;2023-04-03T12:40:53;7.60;;;1.83;;
77888;SDS011;67082;41.704;44.768;2023-04-03T12:46:23;8.75;;;2.38;;
77888;SDS011;67082;41.704;44.768;2023-04-03T12:48:58;6.95;;;2.00;;
77888;SDS011;67082;41.704;44.768;2023-04-03T12:55:17;6.63;;;2.33;;
77888;SDS011;67082;41.704;44.768;2023-04-03T12:57:50;5.20;;;2.20;;
77888;SDS011;67082;41.704;44.768;2023-04-03T13:00:19;5.80;;;2.17;;
77888;SDS011;67082;41.704;44.768;2023-04-03T13:02:54;6.22;;;2.15;;
77888;SDS011;67082;41.704;44.768;2023-04-03T13:08:02;7.43;;;2.63;;
77888;SDS011;67082;41.704;44.768;2023-04-03T13:10:42;5.50;;;2.30;;
77888;SDS011;67082;41.704;44.768;2023-04-03T13:13:17;8.20;;;2.60;;
77888;SDS011;67082;41.704;44.768;2023-04-03T13:15:52;5.32;;;2.08;;
77888;SDS011;67082;41.704;44.768;2023-04-03T13:18:30;10.18;;;2.50;;
77888;SDS011;67082;41.704;44.768;2023-04-03T13:21:05;4.85;;;2.55;;
77888;SDS011;67082;41.704;44.768;2023-04-03T13:23:35;7.70;;;2.72;;
77888;SDS011;67082;41.704;44.768;2023-04-03T13:26:07;9.63;;;2.92;;
77888;SDS011;67082;41.704;44.768;2023-04-03T13:28:38;12.70;;;3.63;;
77888;SDS011;67082;41.704;44.768;2023-04-03T13:31:19;10.13;;;2.72;;
77888;SDS011;67082;41.704;44.768;2023-04-03T13:33:56;6.05;;;2.75;;
77888;SDS011;67082;41.704;44.768;2023-04-03T13:36:34;10.85;;;3.80;;
77888;SDS011;67082;41.704;44.768;2023-04-03T13:39:17;6.90;;;3.10;;
77888;SDS011;67082;41.704;44.768;2023-04-03T13:42:01;12.20;;;3.15;;
77888;SDS011;67082;41.704;44.768;2023-04-03T13:44:43;11.20;;;3.45;;
77888;SDS011;67082;41.704;44.768;2023-04-03T13:49:44;11.80;;;3.47;;
77888;SDS011;67082;41.704;44.768;2023-04-03T13:52:27;10.50;;;3.67;;
77888;SDS011;67082;41.704;44.768;2023-04-03T14:00:45;12.38;;;3.88;;
77888;SDS011;67082;41.704;44.768;2023-04-03T14:03:26;9.93;;;4.22;;
77888;SDS011;67082;41.704;44.768;2023-04-03T14:06:05;11.07;;;3.88;;
77888;SDS011;67082;41.704;44.768;2023-04-03T14:08:40;20.73;;;4.35;;
77888;SDS011;67082;41.704;44.768;2023-04-03T14:11:15;8.45;;;3.60;;
77888;SDS011;67082;41.704;44.768;2023-04-03T14:13:46;8.38;;;3.28;;
77888;SDS011;67082;41.704;44.768;2023-04-03T14:16:15;12.70;;;3.50;;
77888;SDS011;67082;41.704;44.768;2023-04-03T14:18:48;6.70;;;2.70;;
77888;SDS011;67082;41.704;44.768;2023-04-03T14:21:21;7.10;;;2.80;;
77888;SDS011;67082;41.704;44.768;2023-04-03T14:23:50;8.02;;;3.15;;
77888;SDS011;67082;41.704;44.768;2023-04-03T14:26:23;8.15;;;2.90;;
77888;SDS011;67082;41.704;44.768;2023-04-03T14:28:54;12.88;;;3.53;;
77888;SDS011;67082;41.704;44.768;2023-04-03T14:31:24;7.28;;;3.47;;
77888;SDS011;67082;41.704;44.768;2023-04-03T14:33:53;8.05;;;3.47;;
77888;SDS011;67082;41.704;44.768;2023-04-03T14:36:22;9.20;;;3.80;;
77888;SDS011;67082;41.704;44.768;2023-04-03T14:38:54;10.52;;;2.90;;
77888;SDS011;67082;41.704;44.768;2023-04-03T14:41:23;7.40;;;2.90;;
77888;SDS011;67082;41.704;44.768;2023-04-03T14:43:56;8.60;;;3.13;;
77888;SDS011;67082;41.704;44.768;2023-04-03T14:46:32;8.90;;;3.20;;
77888;SDS011;67082;41.704;44.768;2023-04-03T14:49:24;6.18;;;3.05;;
77888;SDS011;67082;41.704;44.768;2023-04-03T14:51:56;7.05;;;3.00;;
77888;SDS011;67082;41.704;44.768;2023-04-03T14:54:27;10.00;;;3.08;;
77888;SDS011;67082;41.704;44.768;2023-04-03T14:56:58;6.93;;;3.03;;
77888;SDS011;67082;41.704;44.768;2023-04-03T14:59:28;9.25;;;3.08;;
77888;SDS011;67082;41.704;44.768;2023-04-03T15:02:00;7.60;;;3.20;;
77888;SDS011;67082;41.704;44.768;2023-04-03T15:04:33;7.90;;;2.70;;
77888;SDS011;67082;41.704;44.768;2023-04-03T15:07:01;5.90;;;2.90;;
77888;SDS011;67082;41.704;44.768;2023-04-03T15:09:30;6.13;;;2.88;;
77888;SDS011;67082;41.704;44.768;2023-04-03T15:11:58;8.32;;;2.88;;
77888;SDS011;67082;41.704;44.768;2023-04-03T15:14:27;7.80;;;3.10;;
77888;SDS011;67082;41.704;44.768;2023-04-03T15:17:04;6.65;;;2.80;;
77888;SDS011;67082;41.704;44.768;2023-04-03T15:19:35;5.50;;;2.70;;
77888;SDS011;67082;41.704;44.768;2023-04-03T15:22:14;6.85;;;2.67;;
77888;SDS011;67082;41.704;44.768;2023-04-03T15:24:49;8.07;;;2.78;;
77888;SDS011;67082;41.704;44.768;2023-04-03T15:27:21;7.95;;;3.00;;
77888;SDS011;67082;41.704;44.768;2023-04-03T15:29:51;6.05;;;2.38;;
77888;SDS011;67082;41.704;44.768;2023-04-03T15:32:23;6.20;;;2.60;;
77888;SDS011;67082;41.704;44.768;2023-04-03T15:34:53;6.72;;;2.88;;
77888;SDS011;67082;41.704;44.768;2023-04-03T15:37:27;8.00;;;3.20;;
77888;SDS011;67082;41.704;44.768;2023-04-03T15:39:57;6.30;;;3.05;;
77888;SDS011;67082;41.704;44.768;2023-04-03T15:42:27;5.55;;;2.63;;
77888;SDS011;67082;41.704;44.768;2023-04-03T15:44:55;5.70;;;2.45;;
77888;SDS011;67082;41.704;44.768;2023-04-03T15:47:24;4.63;;;2.60;;
77888;SDS011;67082;41.704;44.768;2023-04-03T15:50:00;6.38;;;2.63;;
77888;SDS011;67082;41.704;44.768;2023-04-03T15:52:29;6.32;;;2.95;;
77888;SDS011;67082;41.704;44.768;2023-04-03T15:54:58;8.60;;;3.05;;
77888;SDS011;67082;41.704;44.768;2023-04-03T15:57:26;6.93;;;2.88;;
77888;SDS011;67082;41.704;44.768;2023-04-03T16:00:09;7.40;;;3.17;;
77888;SDS011;67082;41.704;44.768;2023-04-03T16:02:38;5.03;;;3.05;;
77888;SDS011;67082;41.704;44.768;2023-04-03T16:05:06;5.57;;;2.78;;
77888;SDS011;67082;41.704;44.768;2023-04-03T16:07:36;6.47;;;2.92;;
77888;SDS011;67082;41.704;44.768;2023-04-03T16:10:06;5.93;;;2.60;;
77888;SDS011;67082;41.704;44.768;2023-04-03T16:12:35;8.85;;;2.88;;
77888;SDS011;67082;41.704;44.768;2023-04-03T16:15:04;5.63;;;3.00;;
77888;SDS011;67082;41.704;44.768;2023-04-03T16:17:34;8.98;;;2.78;;
77888;SDS011;67082;41.704;44.768;2023-04-03T16:20:07;5.22;;;2.80;;
77888;SDS011;67082;41.704;44.768;2023-04-03T16:22:49;8.73;;;2.97;;
77888;SDS011;67082;41.704;44.768;2023-04-03T16:25:19;6.45;;;2.88;;
77888;SDS011;67082;41.704;44.768;2023-04-03T16:27:48;7.30;;;3.33;;
77888;SDS011;67082;41.704;44.768;2023-04-03T16:30:16;6.78;;;2.75;;
77888;SDS011;67082;41.704;44.768;2023-04-03T16:32:46;7.15;;;2.85;;
77888;SDS011;67082;41.704;44.768;2023-04-03T16:35:14;4.97;;;3.10;;
77888;SDS011;67082;41.704;44.768;2023-04-03T16:37:45;8.27;;;3.30;;
77888;SDS011;67082;41.704;44.768;2023-04-03T16:40:29;4.82;;;2.65;;
77888;SDS011;67082;41.704;44.768;2023-04-03T16:43:02;6.55;;;2.53;;
77888;SDS011;67082;41.704;44.768;2023-04-03T16:45:31;6.43;;;2.80;;
77888;SDS011;67082;41.704;44.768;2023-04-03T16:48:00;5.57;;;2.47;;
77888;SDS011;67082;41.704;44.768;2023-04-03T16:50:30;7.65;;;3.17;;
77888;SDS011;67082;41.704;44.768;2023-04-03T16:52:58;6.70;;;2.92;;
77888;SDS011;67082;41.704;44.768;2023-04-03T16:55:27;6.15;;;3.13;;
77888;SDS011;67082;41.704;44.768;2023-04-03T16:57:56;7.22;;;3.20;;